Time;durP1;ratioP1;P1;durP2;ratioP2;P2;SDS_P1;SDS_P2;PMS_P1;PMS_P2;Temp;Humidity;BMP_temperature;BMP_pressure;BME280_temperature;BME280_humidity;BME280_pressure;Samples;Min_cycle;Max_cycle;Signal;HPM_P1;HPM_P2
2021/11/22 00:02:05;;;;;;;1.70;1.27;;;;;;;4.20;87.75;101955.81;5031127;28;20313;-72
2021/11/22 00:04:31;;;;;;;2.23;1.27;;;;;;;4.16;88.38;101955.53;5031502;28;20248;-72
2021/11/22 00:06:56;;;;;;;2.10;1.10;;;;;;;4.14;88.20;101959.63;5029549;28;20190;-72
2021/11/22 00:09:22;;;;;;;2.37;1.60;;;;;;;4.15;88.20;101959.69;5018518;28;20215;-72
2021/11/22 00:11:49;;;;;;;3.07;1.57;;;;;;;4.18;88.25;101962.44;5018011;28;20183;-72
2021/11/22 00:14:18;;;;;;;5.10;1.40;;;;;;;4.13;88.90;101966.34;5029464;28;20260;-72
2021/11/22 00:16:44;;;;;;;3.30;1.47;;;;;;;4.13;88.53;101971.41;5026029;28;20214;-72
2021/11/22 00:19:10;;;;;;;2.67;1.60;;;;;;;4.10;88.82;101978.81;5010982;28;20615;-72
2021/11/22 00:21:36;;;;;;;3.20;1.70;;;;;;;4.11;88.85;101980.59;5015090;28;20206;-72
2021/11/22 00:24:03;;;;;;;1.93;1.23;;;;;;;4.09;88.67;101988.88;5030929;28;20186;-72
2021/11/22 00:26:28;;;;;;;2.23;1.30;;;;;;;4.07;88.41;101988.78;5030633;28;20232;-72
2021/11/22 00:28:54;;;;;;;2.83;1.27;;;;;;;4.05;88.88;101990.31;5009549;28;20766;-72
2021/11/22 00:31:48;;;;;;;2.10;1.20;;;;;;;4.02;88.82;101994.31;5017705;28;20273;-72
2021/11/22 00:34:21;;;;;;;2.33;1.20;;;;;;;4.01;88.49;101992.56;5028516;28;20206;-72
2021/11/22 00:36:55;;;;;;;3.67;1.20;;;;;;;4.00;88.69;101993.34;5010757;28;20187;-72
2021/11/22 00:39:20;;;;;;;2.33;1.43;;;;;;;4.00;88.17;101998.44;5010908;28;20233;-72
2021/11/22 00:41:46;;;;;;;3.87;1.20;;;;;;;3.96;88.28;102006.59;5017407;28;20213;-73
2021/11/22 00:44:12;;;;;;;1.33;0.90;;;;;;;3.93;88.32;102019.97;5030767;28;20559;-72
2021/11/22 00:46:37;;;;;;;1.40;1.00;;;;;;;3.94;88.65;102018.28;5024480;28;20210;-72
2021/11/22 00:49:03;;;;;;;2.00;1.13;;;;;;;3.90;87.97;102017.22;5023215;28;20675;-72
2021/11/22 00:51:28;;;;;;;4.07;1.40;;;;;;;3.85;88.09;102026.16;5012888;28;20195;-72
2021/11/22 00:53:54;;;;;;;2.10;1.10;;;;;;;3.80;88.24;102031.72;5029104;28;20206;-72
2021/11/22 00:56:21;;;;;;;2.40;1.10;;;;;;;3.78;87.89;102038.34;5009188;28;20187;-72
2021/11/22 00:58:47;;;;;;;3.20;1.00;;;;;;;3.63;87.36;102038.22;5010659;28;20191;-72
2021/11/22 01:01:12;;;;;;;1.63;1.10;;;;;;;3.62;87.25;102041.53;5014721;28;20238;-72
2021/11/22 01:03:38;;;;;;;2.23;1.10;;;;;;;3.54;87.32;102049.41;5020050;28;20221;-72
2021/11/22 01:06:03;;;;;;;1.20;1.10;;;;;;;3.48;87.54;102052.41;5013987;28;20195;-72
2021/11/22 01:08:29;;;;;;;3.83;1.27;;;;;;;3.42;86.99;102051.09;5029605;28;20685;-72
2021/11/22 01:10:54;;;;;;;1.77;1.00;;;;;;;3.43;87.70;102065.50;5016299;28;20262;-72
2021/11/22 01:13:20;;;;;;;5.63;1.37;;;;;;;3.34;87.25;102063.25;5010034;28;20736;-72
2021/11/22 01:15:46;;;;;;;2.50;1.10;;;;;;;3.30;87.05;102065.44;5014626;28;20656;-72
2021/11/22 01:18:12;;;;;;;1.43;1.13;;;;;;;3.22;87.42;102075.06;5009172;28;20179;-72
2021/11/22 01:20:37;;;;;;;1.60;0.93;;;;;;;3.24;87.33;102075.16;5008655;28;20249;-72
2021/11/22 01:23:10;;;;;;;1.93;0.90;;;;;;;3.24;87.60;102083.66;5013209;28;20984;-72
2021/11/22 01:25:39;;;;;;;3.00;1.03;;;;;;;3.15;87.05;102088.09;5016014;28;20270;-72
2021/11/22 01:28:05;;;;;;;3.30;1.10;;;;;;;3.13;87.35;102089.59;5008924;28;20236;-72
2021/11/22 01:30:31;;;;;;;1.83;1.10;;;;;;;3.04;86.73;102101.63;5015810;28;20175;-73
2021/11/22 01:32:56;;;;;;;1.63;1.10;;;;;;;3.01;86.74;102098.91;5009943;28;20684;-73
2021/11/22 01:35:23;;;;;;;3.73;1.03;;;;;;;3.02;87.67;102094.69;5008845;28;20282;-73
2021/11/22 01:37:49;;;;;;;2.10;1.10;;;;;;;3.00;87.94;102101.31;5024473;28;20202;-73
2021/11/22 01:40:18;;;;;;;1.77;1.17;;;;;;;2.98;87.57;102106.28;5013397;28;20578;-73
2021/11/22 01:42:44;;;;;;;1.33;0.90;;;;;;;2.95;87.45;102116.16;5024464;28;20218;-73
2021/11/22 01:45:12;;;;;;;1.57;1.07;;;;;;;2.94;88.06;102118.59;5029737;28;20312;-72
2021/11/22 01:47:39;;;;;;;2.23;1.13;;;;;;;2.89;88.21;102120.81;5014831;28;20244;-73
2021/11/22 01:50:06;;;;;;;3.93;1.33;;;;;;;2.90;87.85;102127.59;5017886;28;20538;-72
2021/11/22 01:52:32;;;;;;;3.47;1.30;;;;;;;2.90;87.97;102134.34;5021584;28;20726;-73
2021/11/22 01:54:57;;;;;;;1.80;1.10;;;;;;;2.89;88.06;102140.19;5015700;28;20218;-72
2021/11/22 01:57:23;;;;;;;1.97;1.00;;;;;;;2.87;88.17;102139.16;5018168;28;20202;-73
2021/11/22 01:59:48;;;;;;;1.60;1.00;;;;;;;2.87;88.16;102145.13;5029267;28;20198;-72
2021/11/22 02:02:14;;;;;;;2.93;1.27;;;;;;;2.86;88.13;102150.97;5024156;28;20226;-72
2021/11/22 02:04:40;;;;;;;1.10;1.00;;;;;;;2.87;88.60;102160.28;5002961;28;20186;-72
2021/11/22 02:07:06;;;;;;;1.20;0.90;;;;;;;2.88;88.16;102159.50;5023093;28;20183;-72
2021/11/22 02:09:32;;;;;;;1.33;1.00;;;;;;;2.91;89.04;102153.78;5009767;28;20802;-72
2021/11/22 02:11:59;;;;;;;3.27;1.17;;;;;;;2.88;88.37;102157.00;5012582;28;20197;-72
2021/11/22 02:14:25;;;;;;;3.70;1.10;;;;;;;2.88;88.47;102163.69;5019520;28;20625;-72
2021/11/22 02:16:51;;;;;;;1.37;1.17;;;;;;;2.90;89.06;102165.53;5022144;28;20206;-72
2021/11/22 02:19:17;;;;;;;1.23;0.93;;;;;;;2.89;88.65;102170.53;5033036;28;20645;-73
2021/11/22 02:21:43;;;;;;;2.37;1.07;;;;;;;2.83;89.44;102167.53;5031220;28;20290;-73
2021/11/22 02:24:10;;;;;;;1.50;1.10;;;;;;;2.83;88.66;102176.00;5033419;28;20240;-72
2021/11/22 02:26:36;;;;;;;2.00;1.10;;;;;;;2.76;89.31;102183.91;5031105;28;20190;-72
2021/11/22 02:29:03;;;;;;;2.37;1.10;;;;;;;2.74;88.67;102185.47;5020806;28;20198;-72
2021/11/22 02:31:29;;;;;;;2.37;0.90;;;;;;;2.75;88.79;102191.41;5027166;28;20269;-72
2021/11/22 02:33:55;;;;;;;2.10;0.90;;;;;;;2.67;88.55;102188.31;5017707;28;20821;-72
2021/11/22 02:36:21;;;;;;;2.30;1.00;;;;;;;2.74;88.50;102194.69;5014725;28;20317;-72
2021/11/22 02:38:48;;;;;;;1.10;0.83;;;;;;;2.72;89.20;102194.56;5013693;28;20237;-72
2021/11/22 02:41:15;;;;;;;2.17;0.80;;;;;;;2.72;89.68;102189.53;5021375;28;20221;-72
2021/11/22 02:43:42;;;;;;;2.80;0.97;;;;;;;2.68;89.06;102194.25;5023709;28;20202;-72
2021/11/22 02:46:09;;;;;;;3.73;1.20;;;;;;;2.64;89.15;102194.81;5013045;28;20191;-73
2021/11/22 02:48:35;;;;;;;1.93;1.00;;;;;;;2.62;88.52;102206.47;4998264;28;20194;-73
2021/11/22 02:51:01;;;;;;;2.47;1.00;;;;;;;2.55;88.87;102212.72;5013230;28;20180;-72
2021/11/22 02:53:28;;;;;;;2.57;1.40;;;;;;;2.53;88.86;102210.84;5013908;28;20202;-72
2021/11/22 02:55:59;;;;;;;3.43;1.30;;;;;;;2.47;87.92;102212.91;5012651;28;20195;-73
2021/11/22 02:58:25;;;;;;;5.83;1.13;;;;;;;2.38;88.14;102215.66;5026349;28;20544;-73
2021/11/22 03:00:51;;;;;;;2.20;1.00;;;;;;;2.33;87.94;102219.50;5031711;28;20201;-73
2021/11/22 03:03:17;;;;;;;2.83;1.00;;;;;;;2.33;88.68;102222.03;5026293;28;20202;-73
2021/11/22 03:05:42;;;;;;;2.63;1.13;;;;;;;2.34;88.97;102238.06;5012890;28;20602;-73
2021/11/22 03:08:08;;;;;;;2.43;1.00;;;;;;;2.36;88.54;102234.00;5026647;28;20769;-73
2021/11/22 03:10:33;;;;;;;3.50;1.13;;;;;;;2.35;88.38;102242.34;5012961;28;20187;-73
2021/11/22 03:13:00;;;;;;;2.47;1.23;;;;;;;2.36;88.83;102234.88;5016380;28;20241;-73
2021/11/22 03:15:27;;;;;;;3.57;1.20;;;;;;;2.34;88.92;102243.13;5031072;28;20647;-73
2021/11/22 03:17:53;;;;;;;2.20;0.93;;;;;;;2.28;89.51;102245.19;5029093;28;20196;-73
2021/11/22 03:20:21;;;;;;;1.43;1.13;;;;;;;2.27;89.05;102251.00;5032227;28;20280;-73
2021/11/22 03:22:49;;;;;;;2.17;1.20;;;;;;;2.33;89.26;102248.91;5015324;28;20855;-73
2021/11/22 03:25:17;;;;;;;3.33;1.30;;;;;;;2.30;89.98;102253.75;5032264;28;20186;-73
2021/11/22 03:27:44;;;;;;;2.70;1.30;;;;;;;2.23;89.48;102257.47;5015539;28;20187;-73
2021/11/22 03:30:12;;;;;;;3.60;1.20;;;;;;;2.15;89.12;102253.50;5042198;28;20695;-73
2021/11/22 03:32:37;;;;;;;2.47;1.13;;;;;;;2.03;88.69;102257.63;5028683;28;21090;-73
2021/11/22 03:35:04;;;;;;;1.53;1.33;;;;;;;2.04;88.85;102259.41;5023644;28;20187;-73
2021/11/22 03:37:30;;;;;;;3.13;1.20;;;;;;;2.04;88.90;102255.97;5025693;28;20176;-73
2021/11/22 03:39:56;;;;;;;1.80;1.13;;;;;;;1.95;88.43;102262.84;5019920;28;20702;-73
2021/11/22 03:42:23;;;;;;;1.53;1.00;;;;;;;1.91;88.33;102261.75;5019158;28;20269;-73
2021/11/22 03:44:49;;;;;;;2.30;1.13;;;;;;;1.86;89.00;102275.66;5010771;28;20691;-73
2021/11/22 03:47:15;;;;;;;2.20;1.10;;;;;;;1.82;88.67;102276.19;5012475;28;20242;-73
2021/11/22 03:49:41;;;;;;;2.90;1.40;;;;;;;1.78;88.76;102270.78;5027075;28;20194;-73
2021/11/22 03:52:09;;;;;;;1.30;1.10;;;;;;;1.81;88.15;102273.53;5024943;28;20226;-73
2021/11/22 03:54:34;;;;;;;1.20;1.07;;;;;;;1.77;88.60;102279.13;5031788;28;20179;-73
2021/11/22 03:57:00;;;;;;;2.40;1.00;;;;;;;1.70;89.35;102284.47;5010176;28;20620;-73
2021/11/22 03:59:25;;;;;;;1.60;1.00;;;;;;;1.74;88.28;102281.44;5029382;28;20186;-73
2021/11/22 04:01:51;;;;;;;1.60;1.20;;;;;;;1.71;88.13;102288.75;5019069;28;20215;-73
2021/11/22 04:04:16;;;;;;;2.87;1.20;;;;;;;1.75;88.70;102281.50;5012006;28;20245;-73
2021/11/22 04:06:42;;;;;;;4.17;1.80;;;;;;;1.68;89.14;102293.56;5013560;28;20672;-72
2021/11/22 04:09:08;;;;;;;2.53;1.40;;;;;;;1.72;89.86;102287.97;5010491;28;20203;-72
2021/11/22 04:11:35;;;;;;;2.20;1.30;;;;;;;1.67;89.31;102297.75;5018685;28;20179;-73
2021/11/22 04:14:01;;;;;;;2.33;1.20;;;;;;;1.67;89.66;102297.75;5024893;28;20202;-73
2021/11/22 04:16:27;;;;;;;2.13;1.27;;;;;;;1.63;89.64;102303.31;5030355;28;20186;-73
2021/11/22 04:18:53;;;;;;;3.27;1.50;;;;;;;1.59;89.64;102306.34;5031048;28;20257;-73
2021/11/22 04:21:23;;;;;;;2.43;1.30;;;;;;;1.62;89.31;102313.28;5025511;28;20676;-73
2021/11/22 04:23:50;;;;;;;2.80;1.10;;;;;;;1.61;89.12;102314.91;5015591;28;20217;-73
2021/11/22 04:26:18;;;;;;;3.43;1.20;;;;;;;1.58;89.69;102317.22;5021774;28;20611;-74
2021/11/22 04:28:44;;;;;;;1.30;1.13;;;;;;;1.49;88.72;102324.06;5011451;28;20194;-73
2021/11/22 04:31:09;;;;;;;4.03;1.33;;;;;;;1.55;89.18;102318.59;5011754;28;20648;-74
2021/11/22 04:33:36;;;;;;;1.60;1.03;;;;;;;1.52;90.33;102325.94;5017165;28;20203;-73
2021/11/22 04:36:02;;;;;;;2.60;1.70;;;;;;;1.54;90.35;102324.41;5016640;28;20178;-73
2021/11/22 04:38:28;;;;;;;2.50;1.30;;;;;;;1.52;89.73;102325.94;5019818;28;20194;-73
2021/11/22 04:40:53;;;;;;;2.97;1.60;;;;;;;1.48;90.13;102334.91;5029632;28;20194;-73
2021/11/22 04:43:19;;;;;;;2.00;1.33;;;;;;;1.50;89.61;102329.97;5030727;28;20213;-73
2021/11/22 04:45:45;;;;;;;1.60;1.17;;;;;;;1.49;89.36;102335.78;5030706;28;20178;-73
2021/11/22 04:48:11;;;;;;;4.83;1.30;;;;;;;1.38;88.98;102342.50;5021385;28;20567;-73
2021/11/22 04:50:36;;;;;;;3.93;1.30;;;;;;;1.39;89.30;102353.47;5010907;28;20187;-73
2021/11/22 04:53:04;;;;;;;4.20;1.60;;;;;;;1.38;88.48;102349.19;5022231;28;20340;-73
2021/11/22 04:55:31;;;;;;;2.50;1.50;;;;;;;1.33;88.96;102353.00;5028943;28;20183;-73
2021/11/22 04:57:56;;;;;;;2.27;1.27;;;;;;;1.27;88.07;102357.53;5010699;28;20266;-73
2021/11/22 05:00:23;;;;;;;1.83;1.47;;;;;;;1.25;88.35;102367.53;5009362;28;20668;-73
2021/11/22 05:02:50;;;;;;;2.63;1.63;;;;;;;1.22;88.03;102371.41;5010030;28;20218;-73
2021/11/22 05:05:16;;;;;;;2.07;1.63;;;;;;;1.26;88.32;102375.94;5012120;28;20190;-73
2021/11/22 05:07:43;;;;;;;2.30;1.83;;;;;;;1.25;89.24;102380.13;5010468;28;20185;-73
2021/11/22 05:10:09;;;;;;;2.47;1.90;;;;;;;1.28;89.37;102384.53;5010800;28;20218;-73
2021/11/22 05:12:36;;;;;;;3.77;2.13;;;;;;;1.30;90.10;102383.91;5023582;28;20199;-73
2021/11/22 05:15:02;;;;;;;4.80;2.17;;;;;;;1.23;90.43;102398.44;5010495;28;20191;-74
2021/11/22 05:17:27;;;;;;;4.33;2.20;;;;;;;1.25;90.49;102396.91;5009448;28;20190;-73
2021/11/22 05:19:53;;;;;;;2.90;2.20;;;;;;;1.26;91.11;102396.13;5019924;28;20198;-73
2021/11/22 05:22:21;;;;;;;4.53;2.27;;;;;;;1.31;91.41;102402.44;5015459;28;20230;-73
2021/11/22 05:24:49;;;;;;;3.67;2.07;;;;;;;1.32;91.54;102397.50;5012827;28;20349;-73
2021/11/22 05:27:19;;;;;;;4.97;2.47;;;;;;;1.31;90.77;102398.28;5024989;28;20193;-73
2021/11/22 05:29:45;;;;;;;3.10;2.10;;;;;;;1.30;91.18;102401.56;5029162;28;20191;-73
2021/11/22 05:32:15;;;;;;;3.57;2.20;;;;;;;1.29;91.29;102409.88;5015087;28;20219;-73
2021/11/22 05:34:41;;;;;;;4.77;2.27;;;;;;;1.30;92.18;102411.66;5009032;28;20199;-73
2021/11/22 05:37:07;;;;;;;3.30;2.20;;;;;;;1.34;91.39;102415.28;5011568;28;20258;-73
2021/11/22 05:39:32;;;;;;;5.30;2.47;;;;;;;1.29;91.76;102422.47;5014942;28;20198;-74
2021/11/22 05:41:58;;;;;;;2.90;2.17;;;;;;;1.28;92.43;102423.25;5021233;28;20199;-73
2021/11/22 05:44:23;;;;;;;3.03;2.13;;;;;;;1.28;92.64;102432.47;5021735;28;20190;-73
2021/11/22 05:46:50;;;;;;;4.23;3.00;;;;;;;1.29;92.85;102429.19;5029070;28;20828;-73
2021/11/22 05:49:16;;;;;;;4.20;2.37;;;;;;;1.27;92.43;102426.53;5029023;28;20186;-73
2021/11/22 05:51:44;;;;;;;5.97;2.50;;;;;;;1.25;91.69;102429.69;5023900;28;20289;-73
2021/11/22 05:54:10;;;;;;;6.53;2.47;;;;;;;1.29;91.96;102431.69;5012306;28;20282;-73
2021/11/22 05:56:37;;;;;;;3.50;2.20;;;;;;;1.18;91.84;102433.34;5011388;28;20270;-73
2021/11/22 05:59:02;;;;;;;3.50;2.20;;;;;;;1.19;92.11;102431.72;5008433;28;20195;-73
2021/11/22 06:01:28;;;;;;;3.00;2.10;;;;;;;1.15;92.14;102444.84;5018668;28;20244;-73
2021/11/22 06:03:53;;;;;;;4.27;2.50;;;;;;;1.18;91.17;102456.03;5026134;28;20207;-73
2021/11/22 06:06:19;;;;;;;4.47;3.00;;;;;;;1.20;91.97;102456.19;5015864;28;20218;-73
2021/11/22 06:08:44;;;;;;;5.53;2.80;;;;;;;1.19;92.58;102459.47;5025278;28;20212;-73
2021/11/22 06:11:10;;;;;;;5.37;2.77;;;;;;;1.12;91.37;102455.56;5026922;28;20308;-73
2021/11/22 06:13:35;;;;;;;3.30;2.77;;;;;;;1.10;91.87;102461.22;4992027;28;20206;-73
2021/11/22 06:16:01;;;;;;;6.07;3.17;;;;;;;1.10;91.38;102472.16;5009680;28;20195;-73
2021/11/22 06:18:26;;;;;;;4.50;3.10;;;;;;;1.12;91.42;102470.69;4991903;28;20183;-73
2021/11/22 06:20:52;;;;;;;5.00;3.27;;;;;;;1.15;92.29;102473.44;5009504;28;20218;-73
2021/11/22 06:23:18;;;;;;;5.43;3.17;;;;;;;1.15;91.81;102478.47;5010204;28;20302;-73
2021/11/22 06:25:44;;;;;;;5.03;3.10;;;;;;;1.12;91.78;102479.88;5027950;28;20191;-73
2021/11/22 06:28:10;;;;;;;5.60;3.40;;;;;;;1.17;91.97;102478.59;5029327;28;20178;-73
2021/11/22 06:30:36;;;;;;;5.13;3.73;;;;;;;1.07;91.62;102484.53;5027996;28;20277;-73
2021/11/22 06:33:02;;;;;;;4.40;3.30;;;;;;;1.05;92.28;102481.00;5029167;28;20253;-74
2021/11/22 06:35:28;;;;;;;5.17;3.20;;;;;;;1.04;91.47;102488.44;5029219;28;20190;-74
2021/11/22 06:37:53;;;;;;;6.63;3.33;;;;;;;1.02;91.34;102490.84;5027881;28;20676;-73
2021/11/22 06:40:20;;;;;;;6.37;3.30;;;;;;;1.01;90.85;102498.28;5029104;28;20244;-73
2021/11/22 06:42:46;;;;;;;7.70;3.50;;;;;;;0.95;90.97;102501.16;5029056;28;20742;-73
2021/11/22 06:45:13;;;;;;;4.87;3.23;;;;;;;1.01;90.92;102508.38;5029202;28;20182;-73
2021/11/22 06:47:38;;;;;;;3.40;3.10;;;;;;;0.97;90.83;102509.75;5027895;28;20182;-73
2021/11/22 06:50:06;;;;;;;6.07;3.37;;;;;;;0.90;90.06;102520.06;5024929;28;20205;-73
2021/11/22 06:52:32;;;;;;;5.97;2.90;;;;;;;0.85;90.53;102520.41;5020717;28;20227;-73
2021/11/22 06:54:57;;;;;;;6.37;2.90;;;;;;;0.84;89.44;102534.69;5023027;28;20203;-73
2021/11/22 06:57:25;;;;;;;5.03;2.67;;;;;;;0.86;89.64;102534.81;5010433;28;20187;-73
2021/11/22 06:59:51;;;;;;;4.57;3.40;;;;;;;0.89;89.81;102535.94;5023395;28;20333;-73
2021/11/22 07:02:17;;;;;;;6.20;3.90;;;;;;;0.93;91.07;102535.47;5032748;28;20233;-73
2021/11/22 07:04:44;;;;;;;10.10;4.10;;;;;;;0.98;90.35;102534.22;5032576;28;20194;-74
2021/11/22 07:07:12;;;;;;;8.57;3.77;;;;;;;1.03;91.22;102543.03;5032586;28;20180;-74
2021/11/22 07:09:38;;;;;;;8.10;3.97;;;;;;;1.07;90.57;102549.22;5031150;28;20197;-75
2021/11/22 07:12:05;;;;;;;8.73;4.30;;;;;;;1.08;91.23;102551.88;5032397;28;20215;-74
2021/11/22 07:14:32;;;;;;;7.97;4.40;;;;;;;1.16;90.91;102555.03;5032471;28;20552;-73
2021/11/22 07:16:58;;;;;;;9.93;6.37;;;;;;;1.15;91.82;102563.34;5032453;28;20198;-73
2021/11/22 07:19:24;;;;;;;9.57;6.63;;;;;;;1.19;90.98;102560.34;5032039;28;20190;-74
2021/11/22 07:21:49;;;;;;;11.30;5.57;;;;;;;1.25;91.81;102564.25;5032273;28;20171;-73
2021/11/22 07:24:15;;;;;;;10.63;5.70;;;;;;;1.27;91.96;102570.31;5032519;28;20635;-73
2021/11/22 07:26:40;;;;;;;10.37;6.10;;;;;;;1.24;91.96;102574.22;5032257;28;20185;-73
2021/11/22 07:29:08;;;;;;;6.73;4.87;;;;;;;1.25;91.47;102569.31;5014526;28;20217;-74
2021/11/22 07:31:33;;;;;;;8.30;4.90;;;;;;;1.25;91.47;102578.50;5032349;28;20208;-73
2021/11/22 07:33:59;;;;;;;7.50;5.20;;;;;;;1.41;90.96;102576.50;5032158;28;20572;-73
2021/11/22 07:36:25;;;;;;;11.83;6.17;;;;;;;1.50;91.68;102587.34;5030900;28;20186;-73
2021/11/22 07:38:50;;;;;;;9.73;5.50;;;;;;;1.50;91.96;102592.38;5031936;28;20182;-73
2021/11/22 07:41:16;;;;;;;10.77;5.87;;;;;;;1.53;92.41;102590.13;5036024;28;20327;-74
2021/11/22 07:43:42;;;;;;;9.23;5.37;;;;;;;1.51;92.13;102591.66;5031880;28;20206;-73
2021/11/22 07:46:08;;;;;;;10.83;5.70;;;;;;;1.48;92.14;102589.78;5031995;28;20193;-73
2021/11/22 07:48:33;;;;;;;10.03;6.23;;;;;;;1.49;92.51;102603.25;5030435;28;20183;-73
2021/11/22 07:50:59;;;;;;;12.23;6.80;;;;;;;1.50;91.92;102603.38;5035269;28;20189;-73
2021/11/22 07:53:25;;;;;;;11.67;6.23;;;;;;;1.53;92.21;102605.28;5036247;28;20675;-73
2021/11/22 07:55:51;;;;;;;14.43;6.90;;;;;;;1.54;92.32;102614.59;5031862;28;20287;-73
2021/11/22 07:58:17;;;;;;;13.50;7.00;;;;;;;1.58;92.12;102616.63;5034912;28;20649;-73
2021/11/22 08:00:43;;;;;;;9.73;6.17;;;;;;;1.62;91.55;102613.63;5042675;28;20216;-73
2021/11/22 08:03:08;;;;;;;11.30;6.73;;;;;;;1.70;91.91;102616.00;5032298;28;20202;-73
2021/11/22 08:05:34;;;;;;;11.20;7.07;;;;;;;1.73;92.48;102612.84;5032065;28;20678;-73
2021/11/22 08:08:00;;;;;;;10.93;6.67;;;;;;;1.83;93.04;102617.91;5034899;28;20182;-73
2021/11/22 08:10:30;;;;;;;10.43;6.80;;;;;;;1.86;92.35;102620.69;5049350;28;20622;-73
2021/11/22 08:12:58;;;;;;;11.07;6.97;;;;;;;1.92;92.69;102623.72;5051322;28;20301;-73
2021/11/22 08:15:26;;;;;;;10.53;7.23;;;;;;;1.97;93.31;102620.78;5051414;28;20654;-73
2021/11/22 08:17:53;;;;;;;18.50;7.30;;;;;;;2.03;92.74;102617.91;5051313;28;20530;-73
2021/11/22 08:20:21;;;;;;;9.70;7.13;;;;;;;2.06;92.83;102620.69;5051320;28;20744;-73
2021/11/22 08:22:48;;;;;;;9.57;6.90;;;;;;;2.09;92.99;102624.34;5051089;28;20205;-74
2021/11/22 08:25:15;;;;;;;14.33;7.23;;;;;;;2.14;92.70;102629.75;5051110;28;20181;-72
2021/11/22 08:27:41;;;;;;;9.43;6.47;;;;;;;2.17;92.16;102638.47;5055284;23;20225;-76
2021/11/22 08:30:12;;;;;;;9.40;6.73;;;;;;;2.26;93.09;102635.81;5047594;28;20589;-74
2021/11/22 08:32:40;;;;;;;11.73;7.07;;;;;;;2.35;92.44;102641.59;5048311;28;20736;-78
2021/11/22 08:35:07;;;;;;;9.67;6.23;;;;;;;2.38;91.80;102639.28;5021701;28;20226;-76
2021/11/22 08:37:33;;;;;;;13.10;7.13;;;;;;;2.53;91.69;102641.41;5047313;28;20185;-78
2021/11/22 08:39:58;;;;;;;9.23;6.57;;;;;;;2.60;91.78;102637.72;5049276;28;20652;-76
2021/11/22 08:42:24;;;;;;;8.87;6.50;;;;;;;2.62;92.16;102644.69;5050140;28;20224;-77
2021/11/22 08:44:51;;;;;;;11.10;7.37;;;;;;;2.66;91.54;102638.25;5049558;28;20189;-76
2021/11/22 08:47:17;;;;;;;10.07;6.80;;;;;;;2.74;92.10;102650.72;5049721;28;20185;-77
2021/11/22 08:49:43;;;;;;;9.87;6.93;;;;;;;2.85;91.87;102651.56;5050921;28;20672;-76
2021/11/22 08:52:10;;;;;;;10.93;7.00;;;;;;;2.99;91.51;102648.47;5050953;28;20629;-76
2021/11/22 08:54:36;;;;;;;9.80;6.67;;;;;;;3.12;90.64;102657.13;5048312;28;20220;-76
2021/11/22 08:57:03;;;;;;;7.63;5.87;;;;;;;3.27;90.30;102662.50;5049251;28;20565;-76
2021/11/22 08:59:28;;;;;;;9.13;6.60;;;;;;;3.41;90.30;102655.19;5049150;28;20201;-77
2021/11/22 09:01:54;;;;;;;9.73;6.07;;;;;;;3.53;89.44;102663.72;5049378;28;20251;-79
2021/11/22 09:04:20;;;;;;;10.40;6.40;;;;;;;3.63;88.76;102668.72;5050549;28;20193;-77
2021/11/22 09:06:45;;;;;;;8.63;6.23;;;;;;;3.78;88.87;102661.41;5050262;28;20281;-76
2021/11/22 09:09:12;;;;;;;7.83;6.33;;;;;;;3.87;88.06;102657.91;5048666;28;20193;-78
2021/11/22 09:11:39;;;;;;;9.37;5.23;;;;;;;4.06;87.62;102671.22;5050363;28;20219;-77
2021/11/22 09:14:05;;;;;;;10.73;5.77;;;;;;;4.36;86.61;102663.31;5049450;28;20200;-77
2021/11/22 09:16:30;;;;;;;6.43;5.40;;;;;;;4.71;85.58;102666.75;5049144;28;20187;-77
2021/11/22 09:19:01;;;;;;;9.70;5.30;;;;;;;4.97;83.79;102666.94;5032768;28;20247;-76
2021/11/22 09:21:27;;;;;;;6.77;4.83;;;;;;;5.14;83.07;102669.00;5042768;28;20669;-76
2021/11/22 09:23:53;;;;;;;8.20;4.93;;;;;;;5.41;82.61;102662.41;5049166;28;20186;-76
2021/11/22 09:26:19;;;;;;;7.03;5.43;;;;;;;5.68;81.87;102652.50;5048703;28;20639;-74
2021/11/22 09:28:46;;;;;;;7.20;5.00;;;;;;;5.81;80.17;102665.25;5048160;28;20200;-74
2021/11/22 09:31:13;;;;;;;6.17;4.40;;;;;;;6.10;78.99;102660.47;5048181;28;20221;-77
2021/11/22 09:33:39;;;;;;;5.77;4.60;;;;;;;7.62;74.53;102667.69;5048783;28;20189;-76
2021/11/22 09:36:04;;;;;;;4.87;3.83;;;;;;;10.09;65.23;102658.75;5048950;28;20280;-78
2021/11/22 09:38:30;;;;;;;4.90;3.80;;;;;;;13.09;54.50;102645.81;5049311;28;20672;-78
2021/11/22 09:40:58;;;;;;;6.97;3.53;;;;;;;15.20;48.46;102633.34;5048259;28;20244;-78
2021/11/22 09:43:24;;;;;;;5.80;3.80;;;;;;;16.18;44.56;102637.84;5037838;28;20166;-78
2021/11/22 09:45:51;;;;;;;8.60;4.00;;;;;;;16.46;44.01;102636.84;5039254;28;20792;-78
2021/11/22 09:48:17;;;;;;;6.40;4.07;;;;;;;16.74;43.43;102639.22;5048314;28;20257;-77
2021/11/22 09:50:43;;;;;;;4.87;3.83;;;;;;;15.83;45.43;102642.91;5050473;28;20562;-78
2021/11/22 09:53:09;;;;;;;5.07;3.70;;;;;;;15.92;45.54;102644.03;5051529;28;20201;-78
2021/11/22 09:55:35;;;;;;;6.97;3.90;;;;;;;15.18;46.98;102647.88;5035736;28;20796;-77
2021/11/22 09:58:04;;;;;;;6.27;4.43;;;;;;;13.99;50.35;102650.84;5046080;28;20217;-77
2021/11/22 10:00:42;;;;;;;4.50;4.10;;;;;;;12.78;54.00;102651.44;5049945;28;20244;-78
2021/11/22 10:03:16;;;;;;;4.60;3.77;;;;;;;11.58;58.02;102661.69;5049089;28;20676;-78
2021/11/22 10:05:43;;;;;;;5.97;4.20;;;;;;;11.28;58.61;102664.53;5048995;28;20787;-78
2021/11/22 10:08:11;;;;;;;6.70;3.93;;;;;;;11.57;58.13;102661.63;5047962;28;20185;-76
2021/11/22 10:10:42;;;;;;;5.60;3.77;;;;;;;12.36;56.73;102662.53;5048387;28;20706;-77
2021/11/22 10:13:39;;;;;;;4.47;3.80;;;;;;;13.19;54.49;102649.59;5048579;28;20772;-77
2021/11/22 10:16:07;;;;;;;4.47;3.30;;;;;;;14.02;52.69;102640.63;5033503;28;20293;-77
2021/11/22 10:18:44;;;;;;;6.43;3.90;;;;;;;15.25;49.54;102642.97;5049531;28;20187;-77
2021/11/22 10:21:12;;;;;;;7.17;3.97;;;;;;;16.43;45.71;102637.63;5050145;28;20267;-77
2021/11/22 10:23:39;;;;;;;5.63;3.40;;;;;;;18.44;40.69;102623.72;5050514;28;20670;-76
2021/11/22 10:26:13;;;;;;;5.60;3.50;;;;;;;19.24;39.26;102624.88;5048839;28;20255;-76
2021/11/22 10:28:45;;;;;;;4.17;3.10;;;;;;;18.17;41.04;102630.13;5047956;28;20841;-75
2021/11/22 10:31:29;;;;;;;4.83;3.43;;;;;;;14.81;48.38;102635.59;5048259;28;20747;-76
2021/11/22 10:34:00;;;;;;;4.20;3.20;;;;;;;13.71;51.98;102630.97;5052241;28;20216;-76
2021/11/22 10:36:28;;;;;;;7.60;3.40;;;;;;;13.58;53.22;102639.06;5035344;28;20262;-76
2021/11/22 10:39:00;;;;;;;3.87;2.93;;;;;;;13.57;53.12;102651.88;5050779;28;20235;-76
2021/11/22 10:41:35;;;;;;;7.67;3.10;;;;;;;13.45;53.25;102662.63;5052259;28;20264;-76
2021/11/22 10:44:08;;;;;;;4.27;3.23;;;;;;;13.80;53.36;102663.88;5052270;28;20705;-76
2021/11/22 10:46:39;;;;;;;6.30;2.93;;;;;;;13.44;53.40;102654.88;5053285;28;20228;-75
2021/11/22 10:49:16;;;;;;;7.07;3.70;;;;;;;14.24;52.39;102654.34;5063131;28;20555;-75
2021/11/22 10:51:46;;;;;;;5.40;3.33;;;;;;;14.20;52.07;102656.72;5052809;28;20217;-76
2021/11/22 10:54:14;;;;;;;4.50;3.20;;;;;;;14.96;50.63;102654.13;5051765;28;20212;-77
2021/11/22 10:56:43;;;;;;;6.00;3.30;;;;;;;18.14;43.41;102646.50;5052918;28;20721;-76
2021/11/22 10:59:12;;;;;;;6.87;2.80;;;;;;;20.11;36.72;102626.75;5051132;28;20177;-77
2021/11/22 11:01:47;;;;;;;6.70;2.70;;;;;;;20.38;36.53;102626.13;5051499;28;20182;-76
2021/11/22 11:04:26;;;;;;;3.53;2.70;;;;;;;20.37;35.42;102622.66;5052955;28;20733;-76
2021/11/22 11:07:05;;;;;;;5.13;2.43;;;;;;;20.77;35.06;102632.47;5034916;28;20189;-77
2021/11/22 11:09:37;;;;;;;5.10;2.30;;;;;;;21.11;34.85;102624.03;5052242;28;20205;-76
2021/11/22 11:12:15;;;;;;;4.27;2.50;;;;;;;21.10;34.97;102622.28;5034851;28;20209;-77
2021/11/22 11:14:43;;;;;;;5.10;3.67;;;;;;;21.06;35.26;102630.94;5034716;28;20188;-77
2021/11/22 11:17:20;;;;;;;6.43;4.07;;;;;;;21.12;34.94;102628.38;5051229;28;20276;-77
2021/11/22 11:19:49;;;;;;;5.73;4.10;;;;;;;20.06;36.53;102636.22;5034336;28;20202;-77
2021/11/22 11:22:15;;;;;;;6.93;4.30;;;;;;;20.74;35.90;102627.28;5051238;28;20273;-77
2021/11/22 11:24:41;;;;;;;6.07;4.20;;;;;;;21.80;34.53;102632.16;5052546;28;20247;-76
2021/11/22 11:27:07;;;;;;;8.43;4.63;;;;;;;21.77;35.09;102628.63;5051089;28;20185;-77
2021/11/22 11:29:32;;;;;;;6.20;4.40;;;;;;;21.19;35.53;102629.28;5051869;28;20669;-76
2021/11/22 11:31:58;;;;;;;11.53;4.73;;;;;;;20.59;35.75;102626.28;5051102;28;20224;-76